createdAt,value
2023-04-29T00:02:04.958Z,12.36
2023-04-29T00:04:31.609Z,12.42
2023-04-29T00:06:58.124Z,12.34
2023-04-29T00:09:24.810Z,12.34
2023-04-29T00:11:51.123Z,12.45
2023-04-29T00:14:17.687Z,12.43
2023-04-29T00:16:44.549Z,12.45
2023-04-29T00:19:10.884Z,12.42
2023-04-29T00:21:37.322Z,12.40
2023-04-29T00:24:03.999Z,12.39
2023-04-29T00:26:30.331Z,12.41
2023-04-29T00:28:56.664Z,12.42
2023-04-29T00:31:23.080Z,12.39
2023-04-29T00:33:49.398Z,12.51
2023-04-29T00:36:15.813Z,12.40
2023-04-29T00:38:42.172Z,12.44
2023-04-29T00:41:09.093Z,12.39
2023-04-29T00:43:35.485Z,12.46
2023-04-29T00:46:01.837Z,12.45
2023-04-29T00:48:28.440Z,12.39
2023-04-29T00:50:54.739Z,12.53
2023-04-29T00:53:21.271Z,12.54
2023-04-29T00:55:48.265Z,12.56
2023-04-29T00:58:14.636Z,12.62
2023-04-29T01:00:41.407Z,12.64
2023-04-29T01:03:08.953Z,12.61
2023-04-29T01:05:35.495Z,12.76
2023-04-29T01:08:18.806Z,12.64
2023-04-29T01:10:53.240Z,12.55
2023-04-29T01:13:31.600Z,12.47
2023-04-29T01:16:03.352Z,12.50
2023-04-29T01:18:54.291Z,12.44
2023-04-29T01:21:20.861Z,12.50
2023-04-29T01:23:47.212Z,12.44
2023-04-29T01:26:13.614Z,12.45
2023-04-29T01:28:45.146Z,12.41
2023-04-29T01:31:27.988Z,12.48
2023-04-29T01:34:17.313Z,12.44
2023-04-29T01:37:15.407Z,12.48
2023-04-29T01:39:50.341Z,12.52
2023-04-29T01:42:30.001Z,12.42
2023-04-29T01:45:00.755Z,12.36
2023-04-29T01:47:27.199Z,12.34
2023-04-29T01:49:53.806Z,12.38
2023-04-29T01:52:20.387Z,12.40
2023-04-29T01:54:47.265Z,12.34
2023-04-29T01:57:13.845Z,12.38
2023-04-29T01:59:40.268Z,12.36
2023-04-29T02:02:06.674Z,12.38
2023-04-29T02:04:33.069Z,12.37
2023-04-29T02:06:59.772Z,12.35
2023-04-29T02:09:26.066Z,12.39
2023-04-29T02:11:52.829Z,12.54
2023-04-29T02:14:19.211Z,12.42
2023-04-29T02:16:45.741Z,12.37
2023-04-29T02:19:12.805Z,12.38
2023-04-29T02:21:39.330Z,12.59
2023-04-29T02:24:06.381Z,12.54
2023-04-29T02:26:32.812Z,12.46
2023-04-29T02:28:59.356Z,12.40
2023-04-29T02:31:26.394Z,12.51
2023-04-29T02:33:52.823Z,12.51
2023-04-29T02:36:19.131Z,12.46
2023-04-29T02:38:45.637Z,12.52
2023-04-29T02:41:17.007Z,12.56
2023-04-29T02:43:43.811Z,12.58
2023-04-29T02:46:10.348Z,12.53
2023-04-29T02:48:37.126Z,12.59
2023-04-29T02:51:03.702Z,12.70
2023-04-29T02:53:30.093Z,12.62
2023-04-29T02:55:56.476Z,12.78
2023-04-29T02:58:22.861Z,12.68
2023-04-29T03:00:49.379Z,12.69
2023-04-29T03:03:15.899Z,12.86
2023-04-29T03:05:42.303Z,12.85
2023-04-29T03:08:08.901Z,13.13
2023-04-29T03:10:35.324Z,13.06
2023-04-29T03:13:01.832Z,13.18
2023-04-29T03:15:28.628Z,13.42
2023-04-29T03:17:55.066Z,13.28
2023-04-29T03:20:21.595Z,13.20
2023-04-29T03:22:48.033Z,13.10
2023-04-29T03:25:14.411Z,13.06
2023-04-29T03:27:40.820Z,13.11
2023-04-29T03:30:07.798Z,13.10
2023-04-29T03:32:34.210Z,13.11
2023-04-29T03:35:00.749Z,12.97
2023-04-29T03:37:27.412Z,12.93
2023-04-29T03:39:54.069Z,12.84
2023-04-29T03:42:20.952Z,13.01
2023-04-29T03:44:47.340Z,13.06
2023-04-29T03:47:13.647Z,12.88
2023-04-29T03:49:40.051Z,12.82
2023-04-29T03:52:06.436Z,12.90
2023-04-29T03:54:32.785Z,12.82
2023-04-29T03:56:59.159Z,12.75
2023-04-29T03:59:25.740Z,12.66
2023-04-29T04:01:52.339Z,12.53
2023-04-29T04:04:18.794Z,12.53
2023-04-29T04:06:45.404Z,12.83
2023-04-29T04:09:11.995Z,12.69
2023-04-29T04:11:38.307Z,12.78
2023-04-29T04:14:04.707Z,12.78
2023-04-29T04:16:31.029Z,12.82
2023-04-29T04:18:57.449Z,12.74
2023-04-29T04:21:24.216Z,12.74
2023-04-29T04:23:50.944Z,12.91
2023-04-29T04:26:17.288Z,12.75
2023-04-29T04:28:43.596Z,12.76
2023-04-29T04:31:10.321Z,12.62
2023-04-29T04:33:36.772Z,12.72
2023-04-29T04:36:03.347Z,12.65
2023-04-29T04:38:29.644Z,12.61
2023-04-29T04:40:56.168Z,12.77
2023-04-29T04:43:22.523Z,12.74
2023-04-29T04:45:48.962Z,12.77
2023-04-29T04:48:15.296Z,12.78
2023-04-29T04:50:41.688Z,12.82
2023-04-29T04:53:07.986Z,12.85
2023-04-29T04:55:34.410Z,12.81
2023-04-29T04:58:00.869Z,12.73
2023-04-29T05:00:27.182Z,12.78
2023-04-29T05:02:53.742Z,12.71
2023-04-29T05:05:20.366Z,12.77
2023-04-29T05:07:46.789Z,12.68
2023-04-29T05:10:13.116Z,12.65
2023-04-29T05:12:39.633Z,12.82
2023-04-29T05:15:06.444Z,12.87
2023-04-29T05:17:32.897Z,12.77
2023-04-29T05:19:59.214Z,12.64
2023-04-29T05:22:25.547Z,12.61
2023-04-29T05:24:51.947Z,12.55
2023-04-29T05:27:18.335Z,12.52
2023-04-29T05:29:44.640Z,12.58
2023-04-29T05:32:10.985Z,12.57
2023-04-29T05:34:37.370Z,12.50
2023-04-29T05:37:03.779Z,12.59
2023-04-29T05:39:30.079Z,12.79
2023-04-29T05:41:56.395Z,12.85
2023-04-29T05:44:22.946Z,12.86
2023-04-29T05:46:49.303Z,12.77
2023-04-29T05:49:15.735Z,12.93
2023-04-29T05:51:42.040Z,12.90
2023-04-29T05:54:08.488Z,13.08
2023-04-29T05:56:34.921Z,13.11
2023-04-29T05:59:01.634Z,13.14
2023-04-29T06:01:28.307Z,13.14
2023-04-29T06:03:55.101Z,13.19
2023-04-29T06:06:21.797Z,13.21
2023-04-29T06:08:48.258Z,13.31
2023-04-29T06:11:14.801Z,13.34
2023-04-29T06:13:41.317Z,13.35
2023-04-29T06:16:08.032Z,13.42
2023-04-29T06:18:34.646Z,13.49
2023-04-29T06:21:00.991Z,13.41
2023-04-29T06:23:27.752Z,13.23
2023-04-29T06:25:54.126Z,13.23
2023-04-29T06:28:20.545Z,13.16
2023-04-29T06:30:46.974Z,13.11
2023-04-29T06:33:13.388Z,13.06
2023-04-29T06:35:40.363Z,13.09
2023-04-29T06:38:06.718Z,12.96
2023-04-29T06:40:33.075Z,12.99
2023-04-29T06:42:59.394Z,13.10
2023-04-29T06:45:25.802Z,13.17
2023-04-29T06:47:52.228Z,13.29
2023-04-29T06:50:18.760Z,13.11
2023-04-29T06:52:45.140Z,13.14
2023-04-29T06:55:11.554Z,13.05
2023-04-29T06:57:38.327Z,13.14
2023-04-29T07:00:05.722Z,13.14
2023-04-29T07:02:32.311Z,13.16
2023-04-29T07:04:58.742Z,13.24
2023-04-29T07:07:25.267Z,13.25
2023-04-29T07:09:51.887Z,13.25
2023-04-29T07:12:18.479Z,13.20
2023-04-29T07:14:44.898Z,13.13
2023-04-29T07:17:13.472Z,13.13
2023-04-29T07:19:40.583Z,13.08
2023-04-29T07:22:07.078Z,12.97
2023-04-29T07:24:33.430Z,12.93
2023-04-29T07:26:59.929Z,13.01
2023-04-29T07:29:26.254Z,13.10
2023-04-29T07:31:52.630Z,12.98
2023-04-29T07:34:19.104Z,13.03
2023-04-29T07:36:45.448Z,13.00
2023-04-29T07:39:11.824Z,13.02
2023-04-29T07:41:38.140Z,13.01
2023-04-29T07:44:04.686Z,13.07
2023-04-29T07:46:31.128Z,13.12
2023-04-29T07:48:57.534Z,12.99
2023-04-29T07:51:23.901Z,13.39
2023-04-29T07:53:50.408Z,13.56
2023-04-29T07:56:16.718Z,13.40
2023-04-29T07:58:43.121Z,13.41
2023-04-29T08:01:10.391Z,13.27
2023-04-29T08:03:39.865Z,13.16
2023-04-29T08:06:07.647Z,13.22
2023-04-29T08:08:34.165Z,13.05
2023-04-29T08:11:00.585Z,13.04
2023-04-29T08:13:26.957Z,13.09
2023-04-29T08:15:53.405Z,13.19
2023-04-29T08:18:20.108Z,13.24
2023-04-29T08:20:47.816Z,13.25
2023-04-29T08:23:14.139Z,13.19
2023-04-29T08:25:43.703Z,13.06
2023-04-29T08:28:10.866Z,13.04
2023-04-29T08:30:39.142Z,12.96
2023-04-29T08:33:05.709Z,13.02
2023-04-29T08:35:32.161Z,13.07
2023-04-29T08:37:58.476Z,12.99
2023-04-29T08:40:24.916Z,12.96
2023-04-29T08:42:53.307Z,13.02
2023-04-29T08:45:22.947Z,13.23
2023-04-29T08:47:50.438Z,13.26
2023-04-29T08:50:17.213Z,13.53
2023-04-29T08:52:43.610Z,13.40
2023-04-29T08:55:10.027Z,13.53
2023-04-29T08:57:36.940Z,13.75
2023-04-29T09:00:04.171Z,13.92
2023-04-29T09:02:30.667Z,14.04
2023-04-29T09:05:10.275Z,13.98
2023-04-29T09:07:40.846Z,14.13
2023-04-29T09:10:09.702Z,14.03
2023-04-29T09:12:36.193Z,13.84
2023-04-29T09:15:03.678Z,13.97
2023-04-29T09:17:47.149Z,14.07
2023-04-29T09:20:22.582Z,13.96
2023-04-29T09:22:50.115Z,14.22
2023-04-29T09:25:17.038Z,14.27
2023-04-29T09:27:43.902Z,14.14
2023-04-29T09:30:10.947Z,14.10
2023-04-29T09:32:39.179Z,14.22
2023-04-29T09:35:25.254Z,14.23
2023-04-29T09:37:52.306Z,14.51
2023-04-29T09:40:43.355Z,14.51
2023-04-29T09:43:15.728Z,14.55
2023-04-29T09:45:44.934Z,14.49
2023-04-29T09:48:12.601Z,14.37
2023-04-29T09:50:40.171Z,14.46
2023-04-29T09:53:08.461Z,14.43
2023-04-29T09:55:36.031Z,14.33
2023-04-29T09:58:02.693Z,14.18
2023-04-29T10:00:34.057Z,14.23
2023-04-29T10:03:02.312Z,14.45
2023-04-29T10:05:29.466Z,14.47
2023-04-29T10:07:57.784Z,14.64
2023-04-29T10:10:24.743Z,14.77
2023-04-29T10:12:53.926Z,14.53
2023-04-29T10:15:29.436Z,14.63
2023-04-29T10:18:00.919Z,14.41
2023-04-29T10:20:28.282Z,14.33
2023-04-29T10:22:55.569Z,14.16
2023-04-29T10:25:25.022Z,14.16
2023-04-29T10:27:51.790Z,14.20
2023-04-29T10:30:19.299Z,14.42
2023-04-29T10:32:51.519Z,14.49
2023-04-29T10:35:20.479Z,14.34
2023-04-29T10:37:48.242Z,14.22
2023-04-29T10:40:19.223Z,14.03
2023-04-29T10:42:48.176Z,13.90
2023-04-29T10:45:20.677Z,13.84
2023-04-29T10:48:02.211Z,13.83
2023-04-29T10:50:29.694Z,13.81
2023-04-29T10:52:56.176Z,13.72
2023-04-29T10:55:25.308Z,13.60
2023-04-29T10:57:55.461Z,13.64
2023-04-29T11:00:29.492Z,13.56
2023-04-29T11:03:00.284Z,13.58
2023-04-29T11:05:34.791Z,13.51
2023-04-29T11:08:21.206Z,13.52
2023-04-29T11:10:47.566Z,13.36
2023-04-29T11:13:28.749Z,13.40
2023-04-29T11:16:09.934Z,13.44
2023-04-29T11:18:57.282Z,13.32
2023-04-29T11:21:23.615Z,13.18
2023-04-29T11:23:51.907Z,13.13
2023-04-29T11:26:21.650Z,13.09
2023-04-29T11:28:48.345Z,13.07
2023-04-29T11:31:14.848Z,13.04
2023-04-29T11:33:41.293Z,13.20
2023-04-29T11:36:08.107Z,13.28
2023-04-29T11:38:35.154Z,13.25
2023-04-29T11:41:01.539Z,13.08
2023-04-29T11:43:28.003Z,13.21
2023-04-29T11:45:54.626Z,13.10
2023-04-29T11:48:23.468Z,13.26
2023-04-29T11:50:57.105Z,13.21
2023-04-29T11:53:26.454Z,13.21
2023-04-29T11:55:53.773Z,13.09
2023-04-29T11:58:24.835Z,12.96
2023-04-29T12:00:51.535Z,13.09
2023-04-29T12:03:20.183Z,13.13
2023-04-29T12:05:55.043Z,13.13
2023-04-29T12:08:25.977Z,13.23
2023-04-29T12:10:54.602Z,13.21
2023-04-29T12:13:23.916Z,13.29
2023-04-29T12:15:52.469Z,13.43
2023-04-29T12:18:19.798Z,13.59
2023-04-29T12:20:46.629Z,13.53
2023-04-29T12:23:20.238Z,13.77
2023-04-29T12:25:54.959Z,13.85
2023-04-29T12:28:21.922Z,13.95
2023-04-29T12:30:49.716Z,13.97
2023-04-29T12:33:19.596Z,13.86
2023-04-29T12:35:45.912Z,13.97
2023-04-29T12:38:16.440Z,13.80
2023-04-29T12:40:44.477Z,13.69
2023-04-29T12:43:11.006Z,13.80
2023-04-29T12:45:38.893Z,13.66
2023-04-29T12:48:08.951Z,13.69
2023-04-29T12:50:39.723Z,13.58
2023-04-29T12:53:07.462Z,13.56
2023-04-29T12:55:35.647Z,13.60
2023-04-29T12:58:06.466Z,13.73
2023-04-29T13:00:36.099Z,13.94
2023-04-29T13:03:02.740Z,14.07
2023-04-29T13:05:29.202Z,13.97
2023-04-29T13:07:55.939Z,14.13
2023-04-29T13:10:22.440Z,14.14
2023-04-29T13:12:49.298Z,14.39
2023-04-29T13:15:15.737Z,14.35
2023-04-29T13:17:42.250Z,14.59
2023-04-29T13:20:10.924Z,14.68
2023-04-29T13:22:37.899Z,14.63
2023-04-29T13:25:04.878Z,14.48
2023-04-29T13:27:31.925Z,14.46
2023-04-29T13:29:58.426Z,14.58
2023-04-29T13:32:25.092Z,14.63
2023-04-29T13:34:51.711Z,14.66
2023-04-29T13:37:18.668Z,14.68
2023-04-29T13:39:47.307Z,14.60
2023-04-29T13:42:15.522Z,14.45
2023-04-29T13:47:13.463Z,14.48
2023-04-29T13:50:16.946Z,14.38
2023-04-29T13:55:49.337Z,14.08
2023-04-29T14:00:38.042Z,13.99
2023-04-29T14:03:02.361Z,14.02
2023-04-29T14:05:28.883Z,13.99
2023-04-29T14:07:55.400Z,14.09
2023-04-29T14:10:21.915Z,14.12
2023-04-29T14:12:48.342Z,13.97
2023-04-29T14:15:14.711Z,14.04
2023-04-29T14:17:41.245Z,14.01
2023-04-29T14:20:08.247Z,14.16
2023-04-29T14:22:34.736Z,14.09
2023-04-29T14:25:01.285Z,14.06
2023-04-29T14:27:27.699Z,14.17
2023-04-29T14:29:54.156Z,14.11
2023-04-29T14:32:20.957Z,14.11
2023-04-29T14:34:47.462Z,14.24
2023-04-29T14:37:13.809Z,14.35
2023-04-29T14:39:40.202Z,14.44
2023-04-29T14:42:06.611Z,14.33
2023-04-29T14:44:33.002Z,14.31
2023-04-29T14:46:59.387Z,14.44
2023-04-29T14:49:26.231Z,14.40
2023-04-29T14:51:52.572Z,14.32
2023-04-29T14:54:19.207Z,14.14
2023-04-29T14:56:45.529Z,14.20
2023-04-29T14:59:12.505Z,14.28
2023-04-29T15:01:39.237Z,14.27
2023-04-29T15:04:05.828Z,14.29
2023-04-29T15:06:32.406Z,14.29
2023-04-29T15:08:58.940Z,14.27
2023-04-29T15:11:25.384Z,14.22
2023-04-29T15:13:52.015Z,14.24
2023-04-29T15:16:18.549Z,14.14
2023-04-29T15:18:45.851Z,14.15
2023-04-29T15:21:12.404Z,14.04
2023-04-29T15:23:38.734Z,13.99
2023-04-29T15:26:05.218Z,13.92
2023-04-29T15:28:31.623Z,13.94
2023-04-29T15:30:57.998Z,13.99
2023-04-29T15:33:24.502Z,13.92
2023-04-29T15:35:50.890Z,13.87
2023-04-29T15:38:17.204Z,13.86
2023-04-29T15:40:43.540Z,13.71
2023-04-29T15:43:09.964Z,13.53
2023-04-29T15:45:36.291Z,13.64
2023-04-29T15:48:02.914Z,13.70
2023-04-29T15:50:29.339Z,13.87
2023-04-29T15:52:55.809Z,13.83
2023-04-29T15:55:22.210Z,13.65
2023-04-29T15:57:48.537Z,13.61
2023-04-29T16:00:15.002Z,13.54
2023-04-29T16:02:41.467Z,13.46
2023-04-29T16:05:08.238Z,13.47
2023-04-29T16:07:35.526Z,13.46
2023-04-29T16:10:03.205Z,13.54
2023-04-29T16:12:29.592Z,13.44
2023-04-29T16:14:55.900Z,13.47
2023-04-29T16:17:22.261Z,13.56
2023-04-29T16:19:48.701Z,13.52
2023-04-29T16:22:15.290Z,13.56
2023-04-29T16:24:41.615Z,13.47
2023-04-29T16:27:08.163Z,13.53
2023-04-29T16:29:34.506Z,13.49
2023-04-29T16:32:00.851Z,13.38
2023-04-29T16:34:27.200Z,13.34
2023-04-29T16:36:53.541Z,13.40
2023-04-29T16:39:19.868Z,13.30
2023-04-29T16:41:46.187Z,13.31
2023-04-29T16:44:12.494Z,13.28
2023-04-29T16:46:39.086Z,13.30
2023-04-29T16:49:05.740Z,13.38
2023-04-29T16:51:32.069Z,13.37
2023-04-29T16:53:58.406Z,13.41
2023-04-29T16:56:24.741Z,13.31
2023-04-29T16:58:51.234Z,13.43
2023-04-29T17:01:17.882Z,13.42
2023-04-29T17:03:44.299Z,13.31
2023-04-29T17:06:11.072Z,13.25
2023-04-29T17:08:37.571Z,13.32
2023-04-29T17:11:05.217Z,13.26
2023-04-29T17:13:32.679Z,13.34
2023-04-29T17:15:59.167Z,13.31
2023-04-29T17:18:26.017Z,13.17
2023-04-29T17:20:52.508Z,13.16
2023-04-29T17:23:18.889Z,13.11
2023-04-29T17:25:46.437Z,13.11
2023-04-29T17:28:12.743Z,13.02
2023-04-29T17:30:39.170Z,13.09
2023-04-29T17:33:05.959Z,12.97
2023-04-29T17:35:33.183Z,13.07
2023-04-29T17:37:59.610Z,12.99
2023-04-29T17:40:26.068Z,13.01
2023-04-29T17:42:53.004Z,12.90
2023-04-29T17:45:19.378Z,12.91
2023-04-29T17:47:45.818Z,12.93
2023-04-29T17:50:12.249Z,12.91
2023-04-29T17:52:38.594Z,12.89
2023-04-29T17:55:05.609Z,12.91
2023-04-29T17:57:31.908Z,12.86
2023-04-29T17:59:58.223Z,12.94
2023-04-29T18:02:24.613Z,12.91
2023-04-29T18:04:50.951Z,12.81
2023-04-29T18:07:17.301Z,12.80
2023-04-29T18:09:43.661Z,12.81
2023-04-29T18:12:10.036Z,12.73
2023-04-29T18:14:36.594Z,12.64
2023-04-29T18:17:02.977Z,12.73
2023-04-29T18:19:29.337Z,12.75
2023-04-29T18:21:55.988Z,12.63
2023-04-29T18:24:22.300Z,12.70
2023-04-29T18:26:48.720Z,12.61
2023-04-29T18:29:15.047Z,12.68
2023-04-29T18:31:41.483Z,12.63
2023-04-29T18:34:08.175Z,12.58
2023-04-29T18:36:34.660Z,12.52
2023-04-29T18:39:01.013Z,12.52
2023-04-29T18:41:27.329Z,12.49
2023-04-29T18:43:53.680Z,12.48
2023-04-29T18:46:19.999Z,12.46
2023-04-29T18:48:46.359Z,12.48
2023-04-29T18:51:12.669Z,12.47
2023-04-29T18:53:39.112Z,12.43
2023-04-29T18:56:05.687Z,12.37
2023-04-29T18:58:32.024Z,12.37
2023-04-29T19:00:58.354Z,12.40
2023-04-29T19:03:25.003Z,12.33
2023-04-29T19:05:51.357Z,12.32
2023-04-29T19:08:17.777Z,12.37
2023-04-29T19:10:44.700Z,12.31
2023-04-29T19:13:11.155Z,12.30
2023-04-29T19:15:37.682Z,12.26
2023-04-29T19:18:04.226Z,12.34
2023-04-29T19:20:30.706Z,12.33
2023-04-29T19:22:57.140Z,12.28
2023-04-29T19:25:23.512Z,12.21
2023-04-29T19:27:49.864Z,12.23
2023-04-29T19:30:16.370Z,12.23
2023-04-29T19:32:42.754Z,12.17
2023-04-29T19:35:09.408Z,12.18
2023-04-29T19:37:35.774Z,12.19
2023-04-29T19:40:03.406Z,12.24
2023-04-29T19:42:29.803Z,12.16
2023-04-29T19:44:56.432Z,12.17
2023-04-29T19:47:24.720Z,12.15
2023-04-29T19:49:51.292Z,12.20
2023-04-29T19:52:17.729Z,12.17
2023-04-29T19:54:44.036Z,12.12
2023-04-29T19:57:10.360Z,12.14
2023-04-29T19:59:36.786Z,12.14
2023-04-29T20:02:03.511Z,12.09
2023-04-29T20:04:29.894Z,12.09
2023-04-29T20:06:56.261Z,12.09
2023-04-29T20:09:22.811Z,12.03
2023-04-29T20:11:49.146Z,12.04
2023-04-29T20:14:15.468Z,11.98
2023-04-29T20:16:41.842Z,11.98
2023-04-29T20:19:08.247Z,12.02
2023-04-29T20:21:34.554Z,11.92
2023-04-29T20:24:00.960Z,12.01
2023-04-29T20:26:27.564Z,11.92
2023-04-29T20:28:53.971Z,11.87
2023-04-29T20:31:20.297Z,11.81
2023-04-29T20:33:46.773Z,11.85
2023-04-29T20:36:13.078Z,11.79
2023-04-29T20:38:39.461Z,11.79
2023-04-29T20:41:05.796Z,11.80
2023-04-29T20:43:32.230Z,11.77
2023-04-29T20:45:58.811Z,11.85
2023-04-29T20:48:25.174Z,11.80
2023-04-29T20:50:51.473Z,11.79
2023-04-29T20:53:17.842Z,11.83
2023-04-29T20:55:44.273Z,11.70
2023-04-29T20:58:10.604Z,11.64
2023-04-29T21:00:36.970Z,11.69
2023-04-29T21:03:03.350Z,11.66
2023-04-29T21:05:29.702Z,11.61
2023-04-29T21:07:56.156Z,11.60
2023-04-29T21:10:22.528Z,11.52
2023-04-29T21:12:48.917Z,11.51
2023-04-29T21:15:15.329Z,11.54
2023-04-29T21:17:42.037Z,11.42
2023-04-29T21:20:08.862Z,11.31
2023-04-29T21:22:35.284Z,11.25
2023-04-29T21:25:01.678Z,11.24
2023-04-29T21:27:28.130Z,11.24
2023-04-29T21:29:54.707Z,11.24
2023-04-29T21:32:21.429Z,11.24
2023-04-29T21:34:48.657Z,11.22
2023-04-29T21:37:14.963Z,11.13
2023-04-29T21:39:41.391Z,10.97
2023-04-29T21:42:08.779Z,10.91
2023-04-29T21:44:35.858Z,10.85
2023-04-29T21:47:02.293Z,10.76
2023-04-29T21:49:28.916Z,10.67
2023-04-29T21:51:55.504Z,10.67
2023-04-29T21:54:21.993Z,10.57
2023-04-29T21:56:48.392Z,10.48
2023-04-29T21:59:14.786Z,10.38
2023-04-29T22:01:41.512Z,10.30
2023-04-29T22:04:07.870Z,10.24
2023-04-29T22:06:34.720Z,10.20
2023-04-29T22:09:01.444Z,10.06
2023-04-29T22:11:27.812Z,10.03
2023-04-29T22:13:54.166Z,9.97
2023-04-29T22:16:20.703Z,9.91
2023-04-29T22:18:47.042Z,9.87
2023-04-29T22:21:13.483Z,9.81
2023-04-29T22:23:39.843Z,9.57
2023-04-29T22:26:06.327Z,9.65
2023-04-29T22:28:32.634Z,9.51
2023-04-29T22:30:59.029Z,9.44
2023-04-29T22:33:25.374Z,9.44
2023-04-29T22:35:51.851Z,9.25
2023-04-29T22:38:18.180Z,9.23
2023-04-29T22:40:53.977Z,9.21
2023-04-29T22:43:20.482Z,9.09
2023-04-29T22:45:53.644Z,9.03
2023-04-29T22:48:20.972Z,8.98
2023-04-29T22:50:55.103Z,8.92
2023-04-29T22:53:22.470Z,8.78
2023-04-29T22:55:52.937Z,8.79
2023-04-29T22:58:20.491Z,8.78
2023-04-29T23:00:50.053Z,8.74
2023-04-29T23:03:16.364Z,8.61
2023-04-29T23:05:42.762Z,8.56
2023-04-29T23:08:09.067Z,8.61
2023-04-29T23:10:35.529Z,8.58
2023-04-29T23:13:01.905Z,8.44
2023-04-29T23:15:29.026Z,8.36
2023-04-29T23:17:56.444Z,8.36
2023-04-29T23:20:23.744Z,8.32
2023-04-29T23:22:50.522Z,8.20
2023-04-29T23:25:17.033Z,8.20
2023-04-29T23:27:43.490Z,8.03
2023-04-29T23:30:09.956Z,7.99
2023-04-29T23:32:36.445Z,7.98
2023-04-29T23:35:02.836Z,7.92
2023-04-29T23:37:29.241Z,7.89
2023-04-29T23:39:56.879Z,7.85
2023-04-29T23:42:23.927Z,7.86
2023-04-29T23:44:50.244Z,7.78
2023-04-29T23:47:16.669Z,7.76
2023-04-29T23:49:42.968Z,7.72
2023-04-29T23:52:09.489Z,7.64
2023-04-29T23:54:36.171Z,7.53
2023-04-29T23:57:02.529Z,7.51
2023-04-29T23:59:28.959Z,7.55
